sensor_id;sensor_type;location;lat;lon;timestamp;P1;durP1;ratioP1;P2;durP2;ratioP2
57651;SDS011;43480;53.116;6.734;2024-01-16T00:01:22;4.90;;;1.73;;
57651;SDS011;43480;53.116;6.734;2024-01-16T00:03:48;8.05;;;1.30;;
57651;SDS011;43480;53.116;6.734;2024-01-16T00:06:14;9.05;;;1.52;;
57651;SDS011;43480;53.116;6.734;2024-01-16T00:08:39;9.93;;;2.55;;
57651;SDS011;43480;53.116;6.734;2024-01-16T00:11:05;4.18;;;1.08;;
57651;SDS011;43480;53.116;6.734;2024-01-16T00:13:32;4.88;;;1.08;;
57651;SDS011;43480;53.116;6.734;2024-01-16T00:15:58;7.18;;;1.20;;
57651;SDS011;43480;53.116;6.734;2024-01-16T00:18:24;6.10;;;1.10;;
57651;SDS011;43480;53.116;6.734;2024-01-16T00:20:49;6.90;;;1.35;;
57651;SDS011;43480;53.116;6.734;2024-01-16T00:23:15;6.07;;;1.38;;
57651;SDS011;43480;53.116;6.734;2024-01-16T00:25:41;5.20;;;1.30;;
57651;SDS011;43480;53.116;6.734;2024-01-16T00:28:06;3.83;;;1.00;;
57651;SDS011;43480;53.116;6.734;2024-01-16T00:30:32;6.47;;;1.60;;
57651;SDS011;43480;53.116;6.734;2024-01-16T00:32:58;7.10;;;1.35;;
57651;SDS011;43480;53.116;6.734;2024-01-16T00:35:24;6.28;;;1.25;;
57651;SDS011;43480;53.116;6.734;2024-01-16T00:37:50;7.57;;;1.38;;
57651;SDS011;43480;53.116;6.734;2024-01-16T00:40:16;6.57;;;1.17;;
57651;SDS011;43480;53.116;6.734;2024-01-16T00:42:41;8.70;;;0.98;;
57651;SDS011;43480;53.116;6.734;2024-01-16T00:45:07;5.57;;;1.08;;
57651;SDS011;43480;53.116;6.734;2024-01-16T00:47:33;6.03;;;1.55;;
57651;SDS011;43480;53.116;6.734;2024-01-16T00:49:59;4.05;;;1.13;;
57651;SDS011;43480;53.116;6.734;2024-01-16T00:52:28;3.47;;;1.05;;
57651;SDS011;43480;53.116;6.734;2024-01-16T00:54:53;7.25;;;1.23;;
57651;SDS011;43480;53.116;6.734;2024-01-16T00:57:19;5.07;;;1.38;;
57651;SDS011;43480;53.116;6.734;2024-01-16T00:59:45;6.70;;;1.10;;
57651;SDS011;43480;53.116;6.734;2024-01-16T01:02:11;12.70;;;2.28;;
57651;SDS011;43480;53.116;6.734;2024-01-16T01:04:37;3.85;;;0.90;;
57651;SDS011;43480;53.116;6.734;2024-01-16T01:07:03;6.10;;;0.90;;
57651;SDS011;43480;53.116;6.734;2024-01-16T01:09:29;5.07;;;0.93;;
57651;SDS011;43480;53.116;6.734;2024-01-16T01:11:57;9.80;;;1.55;;
57651;SDS011;43480;53.116;6.734;2024-01-16T01:14:23;8.13;;;1.00;;
57651;SDS011;43480;53.116;6.734;2024-01-16T01:16:50;6.25;;;0.95;;
57651;SDS011;43480;53.116;6.734;2024-01-16T01:19:16;10.75;;;1.17;;
57651;SDS011;43480;53.116;6.734;2024-01-16T01:21:42;3.95;;;0.50;;
57651;SDS011;43480;53.116;6.734;2024-01-16T01:24:08;7.97;;;1.17;;
57651;SDS011;43480;53.116;6.734;2024-01-16T01:26:34;8.02;;;0.70;;
57651;SDS011;43480;53.116;6.734;2024-01-16T01:29:00;5.95;;;1.45;;
57651;SDS011;43480;53.116;6.734;2024-01-16T01:31:26;6.10;;;1.70;;
57651;SDS011;43480;53.116;6.734;2024-01-16T01:33:52;2.45;;;0.70;;
57651;SDS011;43480;53.116;6.734;2024-01-16T01:36:17;6.45;;;0.90;;
57651;SDS011;43480;53.116;6.734;2024-01-16T01:38:43;6.30;;;1.27;;
57651;SDS011;43480;53.116;6.734;2024-01-16T01:41:08;7.53;;;1.42;;
57651;SDS011;43480;53.116;6.734;2024-01-16T01:43:37;4.95;;;1.10;;
57651;SDS011;43480;53.116;6.734;2024-01-16T01:46:16;7.22;;;0.93;;
57651;SDS011;43480;53.116;6.734;2024-01-16T01:48:47;5.68;;;0.85;;
57651;SDS011;43480;53.116;6.734;2024-01-16T01:51:14;6.10;;;0.90;;
57651;SDS011;43480;53.116;6.734;2024-01-16T01:53:42;7.05;;;1.52;;
57651;SDS011;43480;53.116;6.734;2024-01-16T01:56:16;7.60;;;0.80;;
57651;SDS011;43480;53.116;6.734;2024-01-16T01:58:43;5.85;;;1.05;;
57651;SDS011;43480;53.116;6.734;2024-01-16T02:01:11;3.63;;;0.70;;
57651;SDS011;43480;53.116;6.734;2024-01-16T02:03:40;7.38;;;1.85;;
57651;SDS011;43480;53.116;6.734;2024-01-16T02:06:07;5.43;;;1.00;;
57651;SDS011;43480;53.116;6.734;2024-01-16T02:08:34;4.60;;;1.13;;
57651;SDS011;43480;53.116;6.734;2024-01-16T02:11:00;7.82;;;1.13;;
57651;SDS011;43480;53.116;6.734;2024-01-16T02:13:26;5.90;;;1.38;;
57651;SDS011;43480;53.116;6.734;2024-01-16T02:15:53;9.63;;;1.77;;
57651;SDS011;43480;53.116;6.734;2024-01-16T02:18:19;8.63;;;1.00;;
57651;SDS011;43480;53.116;6.734;2024-01-16T02:20:44;5.30;;;0.93;;
57651;SDS011;43480;53.116;6.734;2024-01-16T02:23:12;7.78;;;1.10;;
57651;SDS011;43480;53.116;6.734;2024-01-16T02:25:42;2.58;;;1.17;;
57651;SDS011;43480;53.116;6.734;2024-01-16T02:28:09;9.73;;;1.65;;
57651;SDS011;43480;53.116;6.734;2024-01-16T02:30:35;4.65;;;0.75;;
57651;SDS011;43480;53.116;6.734;2024-01-16T02:33:01;6.78;;;1.27;;
57651;SDS011;43480;53.116;6.734;2024-01-16T02:35:28;2.85;;;1.00;;
57651;SDS011;43480;53.116;6.734;2024-01-16T02:37:54;4.60;;;1.45;;
57651;SDS011;43480;53.116;6.734;2024-01-16T02:40:20;4.53;;;0.80;;
57651;SDS011;43480;53.116;6.734;2024-01-16T02:42:45;5.38;;;1.20;;
57651;SDS011;43480;53.116;6.734;2024-01-16T02:45:11;4.55;;;0.90;;
57651;SDS011;43480;53.116;6.734;2024-01-16T02:47:38;7.78;;;1.42;;
57651;SDS011;43480;53.116;6.734;2024-01-16T02:50:03;11.10;;;1.23;;
57651;SDS011;43480;53.116;6.734;2024-01-16T02:52:30;4.18;;;0.90;;
57651;SDS011;43480;53.116;6.734;2024-01-16T02:54:56;9.68;;;1.50;;
57651;SDS011;43480;53.116;6.734;2024-01-16T02:57:21;7.30;;;1.13;;
57651;SDS011;43480;53.116;6.734;2024-01-16T02:59:47;7.35;;;1.90;;
57651;SDS011;43480;53.116;6.734;2024-01-16T03:02:12;5.28;;;1.00;;
57651;SDS011;43480;53.116;6.734;2024-01-16T03:04:38;5.82;;;1.10;;
57651;SDS011;43480;53.116;6.734;2024-01-16T03:07:04;3.92;;;0.68;;
57651;SDS011;43480;53.116;6.734;2024-01-16T03:09:31;3.60;;;0.90;;
57651;SDS011;43480;53.116;6.734;2024-01-16T03:11:56;4.22;;;0.90;;
57651;SDS011;43480;53.116;6.734;2024-01-16T03:14:23;5.97;;;2.17;;
57651;SDS011;43480;53.116;6.734;2024-01-16T03:16:48;6.28;;;1.38;;
57651;SDS011;43480;53.116;6.734;2024-01-16T03:19:14;3.58;;;1.33;;
57651;SDS011;43480;53.116;6.734;2024-01-16T03:21:40;6.68;;;0.82;;
57651;SDS011;43480;53.116;6.734;2024-01-16T03:24:06;7.72;;;1.90;;
57651;SDS011;43480;53.116;6.734;2024-01-16T03:26:32;6.07;;;1.15;;
57651;SDS011;43480;53.116;6.734;2024-01-16T03:28:58;3.10;;;0.90;;
57651;SDS011;43480;53.116;6.734;2024-01-16T03:31:25;5.32;;;1.33;;
57651;SDS011;43480;53.116;6.734;2024-01-16T03:33:51;8.88;;;1.50;;
57651;SDS011;43480;53.116;6.734;2024-01-16T03:36:16;3.42;;;0.80;;
57651;SDS011;43480;53.116;6.734;2024-01-16T03:38:42;3.08;;;1.05;;
57651;SDS011;43480;53.116;6.734;2024-01-16T03:41:08;6.30;;;1.30;;
57651;SDS011;43480;53.116;6.734;2024-01-16T03:43:36;7.35;;;1.63;;
57651;SDS011;43480;53.116;6.734;2024-01-16T03:46:02;6.07;;;1.23;;
57651;SDS011;43480;53.116;6.734;2024-01-16T03:48:28;9.38;;;1.60;;
57651;SDS011;43480;53.116;6.734;2024-01-16T03:50:54;4.80;;;1.75;;
57651;SDS011;43480;53.116;6.734;2024-01-16T03:53:21;5.97;;;0.95;;
57651;SDS011;43480;53.116;6.734;2024-01-16T03:55:46;5.85;;;0.88;;
57651;SDS011;43480;53.116;6.734;2024-01-16T03:58:13;5.13;;;1.50;;
57651;SDS011;43480;53.116;6.734;2024-01-16T04:00:39;4.65;;;1.23;;
57651;SDS011;43480;53.116;6.734;2024-01-16T04:03:04;6.40;;;1.55;;
57651;SDS011;43480;53.116;6.734;2024-01-16T04:05:32;8.73;;;1.25;;
57651;SDS011;43480;53.116;6.734;2024-01-16T04:07:58;7.97;;;1.38;;
57651;SDS011;43480;53.116;6.734;2024-01-16T04:10:23;3.10;;;0.85;;
57651;SDS011;43480;53.116;6.734;2024-01-16T04:12:49;4.55;;;1.27;;
57651;SDS011;43480;53.116;6.734;2024-01-16T04:15:15;9.82;;;1.98;;
57651;SDS011;43480;53.116;6.734;2024-01-16T04:17:40;7.20;;;0.93;;
57651;SDS011;43480;53.116;6.734;2024-01-16T04:20:06;6.43;;;1.20;;
57651;SDS011;43480;53.116;6.734;2024-01-16T04:22:32;5.68;;;2.38;;
57651;SDS011;43480;53.116;6.734;2024-01-16T04:24:58;6.97;;;1.20;;
57651;SDS011;43480;53.116;6.734;2024-01-16T04:27:24;5.47;;;0.85;;
57651;SDS011;43480;53.116;6.734;2024-01-16T04:29:50;4.60;;;0.90;;
57651;SDS011;43480;53.116;6.734;2024-01-16T04:32:16;5.88;;;1.17;;
57651;SDS011;43480;53.116;6.734;2024-01-16T04:34:42;7.72;;;2.33;;
57651;SDS011;43480;53.116;6.734;2024-01-16T04:37:08;3.47;;;0.82;;
57651;SDS011;43480;53.116;6.734;2024-01-16T04:39:33;6.05;;;1.40;;
57651;SDS011;43480;53.116;6.734;2024-01-16T04:41:59;6.95;;;1.38;;
57651;SDS011;43480;53.116;6.734;2024-01-16T04:44:25;6.57;;;1.58;;
57651;SDS011;43480;53.116;6.734;2024-01-16T04:46:50;3.92;;;0.90;;
57651;SDS011;43480;53.116;6.734;2024-01-16T04:49:16;9.35;;;2.70;;
57651;SDS011;43480;53.116;6.734;2024-01-16T04:51:42;8.02;;;2.30;;
57651;SDS011;43480;53.116;6.734;2024-01-16T04:54:07;7.10;;;1.90;;
57651;SDS011;43480;53.116;6.734;2024-01-16T04:56:33;8.05;;;1.17;;
57651;SDS011;43480;53.116;6.734;2024-01-16T04:58:59;2.33;;;0.80;;
57651;SDS011;43480;53.116;6.734;2024-01-16T05:01:24;7.55;;;1.15;;
57651;SDS011;43480;53.116;6.734;2024-01-16T05:03:50;4.15;;;1.08;;
57651;SDS011;43480;53.116;6.734;2024-01-16T05:06:16;4.38;;;1.30;;
57651;SDS011;43480;53.116;6.734;2024-01-16T05:08:42;8.13;;;1.65;;
57651;SDS011;43480;53.116;6.734;2024-01-16T05:11:08;4.15;;;1.20;;
57651;SDS011;43480;53.116;6.734;2024-01-16T05:13:34;5.97;;;1.08;;
57651;SDS011;43480;53.116;6.734;2024-01-16T05:16:00;4.95;;;0.73;;
57651;SDS011;43480;53.116;6.734;2024-01-16T05:18:25;5.47;;;1.15;;
57651;SDS011;43480;53.116;6.734;2024-01-16T05:20:51;10.82;;;1.80;;
57651;SDS011;43480;53.116;6.734;2024-01-16T05:23:17;4.15;;;1.25;;
57651;SDS011;43480;53.116;6.734;2024-01-16T05:25:43;6.82;;;1.08;;
57651;SDS011;43480;53.116;6.734;2024-01-16T05:28:09;4.10;;;1.20;;
57651;SDS011;43480;53.116;6.734;2024-01-16T05:30:35;6.10;;;1.42;;
57651;SDS011;43480;53.116;6.734;2024-01-16T05:33:01;5.10;;;1.25;;
57651;SDS011;43480;53.116;6.734;2024-01-16T05:35:27;3.22;;;0.80;;
57651;SDS011;43480;53.116;6.734;2024-01-16T05:37:53;6.70;;;1.02;;
57651;SDS011;43480;53.116;6.734;2024-01-16T05:40:20;6.45;;;1.67;;
57651;SDS011;43480;53.116;6.734;2024-01-16T05:42:47;6.93;;;1.08;;
57651;SDS011;43480;53.116;6.734;2024-01-16T05:45:13;6.53;;;1.95;;
57651;SDS011;43480;53.116;6.734;2024-01-16T05:47:39;7.72;;;1.33;;
57651;SDS011;43480;53.116;6.734;2024-01-16T05:50:05;4.22;;;1.08;;
57651;SDS011;43480;53.116;6.734;2024-01-16T05:52:31;8.65;;;1.10;;
57651;SDS011;43480;53.116;6.734;2024-01-16T05:54:57;4.72;;;1.15;;
57651;SDS011;43480;53.116;6.734;2024-01-16T05:57:24;8.77;;;1.40;;
57651;SDS011;43480;53.116;6.734;2024-01-16T05:59:50;7.35;;;2.10;;
57651;SDS011;43480;53.116;6.734;2024-01-16T06:02:16;5.50;;;1.35;;
57651;SDS011;43480;53.116;6.734;2024-01-16T06:04:42;5.13;;;1.17;;
57651;SDS011;43480;53.116;6.734;2024-01-16T06:07:07;10.52;;;1.30;;
57651;SDS011;43480;53.116;6.734;2024-01-16T06:09:33;4.22;;;0.85;;
57651;SDS011;43480;53.116;6.734;2024-01-16T06:12:06;8.02;;;1.80;;
57651;SDS011;43480;53.116;6.734;2024-01-16T06:14:34;11.88;;;2.47;;
57651;SDS011;43480;53.116;6.734;2024-01-16T06:17:00;7.72;;;2.95;;
57651;SDS011;43480;53.116;6.734;2024-01-16T06:19:26;6.10;;;1.20;;
57651;SDS011;43480;53.116;6.734;2024-01-16T06:21:52;6.20;;;1.45;;
57651;SDS011;43480;53.116;6.734;2024-01-16T06:24:18;6.90;;;1.38;;
57651;SDS011;43480;53.116;6.734;2024-01-16T06:26:43;4.50;;;1.25;;
57651;SDS011;43480;53.116;6.734;2024-01-16T06:29:09;11.25;;;1.52;;
57651;SDS011;43480;53.116;6.734;2024-01-16T06:31:35;11.07;;;2.33;;
57651;SDS011;43480;53.116;6.734;2024-01-16T06:34:00;5.32;;;1.30;;
57651;SDS011;43480;53.116;6.734;2024-01-16T06:36:26;7.93;;;1.65;;
57651;SDS011;43480;53.116;6.734;2024-01-16T06:38:52;8.57;;;1.75;;
57651;SDS011;43480;53.116;6.734;2024-01-16T06:41:17;8.07;;;1.00;;
57651;SDS011;43480;53.116;6.734;2024-01-16T06:43:43;10.15;;;1.48;;
57651;SDS011;43480;53.116;6.734;2024-01-16T06:46:09;5.93;;;0.98;;
57651;SDS011;43480;53.116;6.734;2024-01-16T06:48:35;7.68;;;1.08;;
57651;SDS011;43480;53.116;6.734;2024-01-16T06:51:04;9.98;;;1.40;;
57651;SDS011;43480;53.116;6.734;2024-01-16T06:53:30;6.88;;;2.63;;
57651;SDS011;43480;53.116;6.734;2024-01-16T06:55:56;5.93;;;1.55;;
57651;SDS011;43480;53.116;6.734;2024-01-16T06:58:21;10.88;;;1.77;;
57651;SDS011;43480;53.116;6.734;2024-01-16T07:00:47;5.28;;;1.20;;
57651;SDS011;43480;53.116;6.734;2024-01-16T07:03:13;4.38;;;1.00;;
57651;SDS011;43480;53.116;6.734;2024-01-16T07:05:39;13.00;;;1.45;;
57651;SDS011;43480;53.116;6.734;2024-01-16T07:08:06;9.90;;;1.85;;
57651;SDS011;43480;53.116;6.734;2024-01-16T07:10:32;6.03;;;1.42;;
57651;SDS011;43480;53.116;6.734;2024-01-16T07:12:59;9.02;;;1.80;;
57651;SDS011;43480;53.116;6.734;2024-01-16T07:15:24;5.13;;;1.10;;
57651;SDS011;43480;53.116;6.734;2024-01-16T07:17:50;7.25;;;2.05;;
57651;SDS011;43480;53.116;6.734;2024-01-16T07:20:16;4.03;;;1.42;;
57651;SDS011;43480;53.116;6.734;2024-01-16T07:22:42;10.60;;;1.35;;
57651;SDS011;43480;53.116;6.734;2024-01-16T07:25:08;5.22;;;0.90;;
57651;SDS011;43480;53.116;6.734;2024-01-16T07:27:34;4.30;;;1.10;;
57651;SDS011;43480;53.116;6.734;2024-01-16T07:30:00;4.63;;;1.52;;
57651;SDS011;43480;53.116;6.734;2024-01-16T07:32:29;4.65;;;1.23;;
57651;SDS011;43480;53.116;6.734;2024-01-16T07:34:55;6.97;;;1.65;;
57651;SDS011;43480;53.116;6.734;2024-01-16T07:37:20;4.43;;;0.90;;
57651;SDS011;43480;53.116;6.734;2024-01-16T07:39:46;6.07;;;1.13;;
57651;SDS011;43480;53.116;6.734;2024-01-16T07:42:12;5.88;;;1.55;;
57651;SDS011;43480;53.116;6.734;2024-01-16T07:44:37;5.05;;;1.27;;
57651;SDS011;43480;53.116;6.734;2024-01-16T07:47:03;8.60;;;1.45;;
57651;SDS011;43480;53.116;6.734;2024-01-16T07:49:29;3.90;;;0.93;;
57651;SDS011;43480;53.116;6.734;2024-01-16T07:51:55;5.03;;;1.13;;
57651;SDS011;43480;53.116;6.734;2024-01-16T07:54:21;8.38;;;1.10;;
57651;SDS011;43480;53.116;6.734;2024-01-16T07:56:46;9.50;;;1.77;;
57651;SDS011;43480;53.116;6.734;2024-01-16T07:59:12;5.03;;;1.08;;
57651;SDS011;43480;53.116;6.734;2024-01-16T08:01:39;5.25;;;1.20;;
57651;SDS011;43480;53.116;6.734;2024-01-16T08:04:04;3.38;;;1.05;;
57651;SDS011;43480;53.116;6.734;2024-01-16T08:06:30;6.07;;;0.90;;
57651;SDS011;43480;53.116;6.734;2024-01-16T08:08:56;6.35;;;1.42;;
57651;SDS011;43480;53.116;6.734;2024-01-16T08:11:23;8.80;;;2.00;;
57651;SDS011;43480;53.116;6.734;2024-01-16T08:13:48;4.88;;;1.50;;
57651;SDS011;43480;53.116;6.734;2024-01-16T08:16:14;6.88;;;1.85;;
57651;SDS011;43480;53.116;6.734;2024-01-16T08:18:40;9.00;;;1.50;;
57651;SDS011;43480;53.116;6.734;2024-01-16T08:21:06;7.60;;;1.55;;
57651;SDS011;43480;53.116;6.734;2024-01-16T08:23:32;6.63;;;1.27;;
57651;SDS011;43480;53.116;6.734;2024-01-16T08:25:59;6.47;;;1.35;;
57651;SDS011;43480;53.116;6.734;2024-01-16T08:28:26;4.97;;;1.55;;
57651;SDS011;43480;53.116;6.734;2024-01-16T08:30:52;6.60;;;1.98;;
57651;SDS011;43480;53.116;6.734;2024-01-16T08:33:17;4.97;;;1.13;;
57651;SDS011;43480;53.116;6.734;2024-01-16T08:35:43;3.83;;;1.15;;
57651;SDS011;43480;53.116;6.734;2024-01-16T08:38:09;5.68;;;1.60;;
57651;SDS011;43480;53.116;6.734;2024-01-16T08:40:35;8.55;;;1.77;;
57651;SDS011;43480;53.116;6.734;2024-01-16T08:43:00;3.00;;;0.73;;
57651;SDS011;43480;53.116;6.734;2024-01-16T08:45:26;6.82;;;2.47;;
57651;SDS011;43480;53.116;6.734;2024-01-16T08:47:52;8.88;;;1.63;;
57651;SDS011;43480;53.116;6.734;2024-01-16T08:50:17;5.50;;;1.75;;
57651;SDS011;43480;53.116;6.734;2024-01-16T08:52:43;5.10;;;1.40;;
57651;SDS011;43480;53.116;6.734;2024-01-16T08:55:09;7.75;;;1.70;;
57651;SDS011;43480;53.116;6.734;2024-01-16T08:57:35;5.72;;;1.83;;
57651;SDS011;43480;53.116;6.734;2024-01-16T09:00:03;6.68;;;1.65;;
57651;SDS011;43480;53.116;6.734;2024-01-16T09:02:30;7.80;;;2.20;;
57651;SDS011;43480;53.116;6.734;2024-01-16T09:04:56;7.43;;;2.45;;
57651;SDS011;43480;53.116;6.734;2024-01-16T09:07:23;6.93;;;2.28;;
57651;SDS011;43480;53.116;6.734;2024-01-16T09:09:49;11.40;;;3.00;;
57651;SDS011;43480;53.116;6.734;2024-01-16T09:12:15;6.78;;;2.15;;
57651;SDS011;43480;53.116;6.734;2024-01-16T09:14:41;9.50;;;2.63;;
57651;SDS011;43480;53.116;6.734;2024-01-16T09:17:06;6.95;;;2.22;;
57651;SDS011;43480;53.116;6.734;2024-01-16T09:19:32;4.88;;;1.98;;
57651;SDS011;43480;53.116;6.734;2024-01-16T09:21:58;6.15;;;2.90;;
57651;SDS011;43480;53.116;6.734;2024-01-16T09:24:23;7.55;;;2.42;;
57651;SDS011;43480;53.116;6.734;2024-01-16T09:26:49;8.20;;;3.03;;
57651;SDS011;43480;53.116;6.734;2024-01-16T09:29:15;6.55;;;2.42;;
57651;SDS011;43480;53.116;6.734;2024-01-16T09:31:41;7.72;;;2.00;;
57651;SDS011;43480;53.116;6.734;2024-01-16T09:34:07;9.55;;;2.40;;
57651;SDS011;43480;53.116;6.734;2024-01-16T09:36:33;8.32;;;1.92;;
57651;SDS011;43480;53.116;6.734;2024-01-16T09:39:01;9.20;;;2.35;;
57651;SDS011;43480;53.116;6.734;2024-01-16T09:41:28;6.25;;;2.65;;
57651;SDS011;43480;53.116;6.734;2024-01-16T09:43:53;7.85;;;2.60;;
57651;SDS011;43480;53.116;6.734;2024-01-16T09:46:20;4.70;;;1.95;;
57651;SDS011;43480;53.116;6.734;2024-01-16T09:48:49;8.82;;;3.13;;
57651;SDS011;43480;53.116;6.734;2024-01-16T09:51:19;7.55;;;1.80;;
57651;SDS011;43480;53.116;6.734;2024-01-16T09:53:44;9.45;;;2.40;;
57651;SDS011;43480;53.116;6.734;2024-01-16T09:56:16;5.78;;;2.63;;
57651;SDS011;43480;53.116;6.734;2024-01-16T09:58:45;4.40;;;2.35;;
57651;SDS011;43480;53.116;6.734;2024-01-16T10:01:14;6.20;;;2.30;;
57651;SDS011;43480;53.116;6.734;2024-01-16T10:03:44;8.52;;;2.10;;
57651;SDS011;43480;53.116;6.734;2024-01-16T10:06:10;8.25;;;2.05;;
57651;SDS011;43480;53.116;6.734;2024-01-16T10:08:37;4.28;;;1.65;;
57651;SDS011;43480;53.116;6.734;2024-01-16T10:11:03;5.38;;;1.90;;
57651;SDS011;43480;53.116;6.734;2024-01-16T10:13:29;6.30;;;2.03;;
57651;SDS011;43480;53.116;6.734;2024-01-16T10:15:57;11.35;;;2.28;;
57651;SDS011;43480;53.116;6.734;2024-01-16T10:20:51;5.30;;;1.80;;
57651;SDS011;43480;53.116;6.734;2024-01-16T10:28:38;11.15;;;3.30;;
57651;SDS011;43480;53.116;6.734;2024-01-16T10:31:06;7.00;;;2.75;;
57651;SDS011;43480;53.116;6.734;2024-01-16T10:33:36;6.40;;;2.50;;
57651;SDS011;43480;53.116;6.734;2024-01-16T10:36:12;8.45;;;3.17;;
57651;SDS011;43480;53.116;6.734;2024-01-16T10:38:40;9.40;;;4.15;;
57651;SDS011;43480;53.116;6.734;2024-01-16T10:43:39;8.07;;;3.35;;
57651;SDS011;43480;53.116;6.734;2024-01-16T10:46:15;12.00;;;4.00;;
57651;SDS011;43480;53.116;6.734;2024-01-16T10:48:42;9.63;;;4.05;;
57651;SDS011;43480;53.116;6.734;2024-01-16T10:51:10;10.38;;;4.75;;
57651;SDS011;43480;53.116;6.734;2024-01-16T10:53:37;13.35;;;4.93;;
57651;SDS011;43480;53.116;6.734;2024-01-16T10:56:09;14.48;;;4.63;;
57651;SDS011;43480;53.116;6.734;2024-01-16T10:58:37;11.52;;;4.75;;
57651;SDS011;43480;53.116;6.734;2024-01-16T11:01:10;10.68;;;5.13;;
57651;SDS011;43480;53.116;6.734;2024-01-16T11:03:40;12.45;;;4.97;;
57651;SDS011;43480;53.116;6.734;2024-01-16T11:06:11;11.82;;;6.82;;
57651;SDS011;43480;53.116;6.734;2024-01-16T11:08:39;8.13;;;4.85;;
57651;SDS011;43480;53.116;6.734;2024-01-16T11:11:06;12.70;;;5.68;;
57651;SDS011;43480;53.116;6.734;2024-01-16T11:13:33;13.35;;;6.70;;
57651;SDS011;43480;53.116;6.734;2024-01-16T11:16:00;11.95;;;5.72;;
57651;SDS011;43480;53.116;6.734;2024-01-16T11:18:30;11.35;;;5.78;;
57651;SDS011;43480;53.116;6.734;2024-01-16T11:21:06;9.68;;;5.30;;
57651;SDS011;43480;53.116;6.734;2024-01-16T11:23:40;10.07;;;5.13;;
57651;SDS011;43480;53.116;6.734;2024-01-16T11:28:56;11.75;;;4.95;;
57651;SDS011;43480;53.116;6.734;2024-01-16T11:31:30;9.15;;;4.90;;
57651;SDS011;43480;53.116;6.734;2024-01-16T11:33:57;7.07;;;4.28;;
57651;SDS011;43480;53.116;6.734;2024-01-16T11:36:47;7.63;;;3.50;;
57651;SDS011;43480;53.116;6.734;2024-01-16T11:39:24;7.72;;;2.92;;
57651;SDS011;43480;53.116;6.734;2024-01-16T11:49:42;6.20;;;2.90;;
57651;SDS011;43480;53.116;6.734;2024-01-16T11:52:08;7.13;;;2.90;;
57651;SDS011;43480;53.116;6.734;2024-01-16T11:54:36;7.05;;;2.80;;
57651;SDS011;43480;53.116;6.734;2024-01-16T12:00:04;9.48;;;3.13;;
57651;SDS011;43480;53.116;6.734;2024-01-16T12:05:25;5.82;;;2.55;;
57651;SDS011;43480;53.116;6.734;2024-01-16T12:07:51;6.63;;;2.42;;
57651;SDS011;43480;53.116;6.734;2024-01-16T12:10:19;9.68;;;3.95;;
57651;SDS011;43480;53.116;6.734;2024-01-16T12:12:47;6.07;;;3.22;;
57651;SDS011;43480;53.116;6.734;2024-01-16T12:15:17;8.85;;;3.50;;
57651;SDS011;43480;53.116;6.734;2024-01-16T12:17:59;7.85;;;2.50;;
57651;SDS011;43480;53.116;6.734;2024-01-16T12:20:28;4.13;;;2.25;;
57651;SDS011;43480;53.116;6.734;2024-01-16T12:22:59;7.95;;;2.58;;
57651;SDS011;43480;53.116;6.734;2024-01-16T12:25:29;8.05;;;2.75;;
57651;SDS011;43480;53.116;6.734;2024-01-16T12:28:06;6.28;;;2.35;;
57651;SDS011;43480;53.116;6.734;2024-01-16T12:30:38;6.25;;;2.80;;
57651;SDS011;43480;53.116;6.734;2024-01-16T12:35:36;6.15;;;2.65;;
57651;SDS011;43480;53.116;6.734;2024-01-16T12:38:07;5.45;;;2.05;;
57651;SDS011;43480;53.116;6.734;2024-01-16T12:40:39;7.00;;;2.63;;
57651;SDS011;43480;53.116;6.734;2024-01-16T12:43:11;7.57;;;2.40;;
57651;SDS011;43480;53.116;6.734;2024-01-16T12:45:37;8.10;;;2.03;;
57651;SDS011;43480;53.116;6.734;2024-01-16T12:48:03;9.15;;;2.65;;
57651;SDS011;43480;53.116;6.734;2024-01-16T12:50:29;9.57;;;2.58;;
57651;SDS011;43480;53.116;6.734;2024-01-16T12:53:03;8.95;;;3.10;;
57651;SDS011;43480;53.116;6.734;2024-01-16T12:55:30;6.55;;;2.53;;
57651;SDS011;43480;53.116;6.734;2024-01-16T12:58:16;7.63;;;2.65;;
57651;SDS011;43480;53.116;6.734;2024-01-16T13:00:48;6.05;;;2.70;;
57651;SDS011;43480;53.116;6.734;2024-01-16T13:03:18;7.22;;;3.38;;
57651;SDS011;43480;53.116;6.734;2024-01-16T13:05:58;8.75;;;3.25;;
57651;SDS011;43480;53.116;6.734;2024-01-16T13:08:24;9.18;;;3.30;;
57651;SDS011;43480;53.116;6.734;2024-01-16T13:11:04;8.65;;;3.17;;
57651;SDS011;43480;53.116;6.734;2024-01-16T13:13:36;11.25;;;4.07;;
57651;SDS011;43480;53.116;6.734;2024-01-16T13:16:04;8.20;;;3.75;;
57651;SDS011;43480;53.116;6.734;2024-01-16T13:18:33;12.63;;;3.58;;
57651;SDS011;43480;53.116;6.734;2024-01-16T13:21:00;7.93;;;3.22;;
57651;SDS011;43480;53.116;6.734;2024-01-16T13:23:26;10.70;;;3.50;;
57651;SDS011;43480;53.116;6.734;2024-01-16T13:25:53;9.77;;;3.70;;
57651;SDS011;43480;53.116;6.734;2024-01-16T13:28:20;6.82;;;4.20;;
57651;SDS011;43480;53.116;6.734;2024-01-16T13:30:47;8.43;;;4.35;;
57651;SDS011;43480;53.116;6.734;2024-01-16T13:33:14;7.72;;;3.80;;
57651;SDS011;43480;53.116;6.734;2024-01-16T13:35:43;10.05;;;4.65;;
57651;SDS011;43480;53.116;6.734;2024-01-16T13:38:12;9.30;;;4.05;;
57651;SDS011;43480;53.116;6.734;2024-01-16T13:40:40;9.57;;;4.05;;
57651;SDS011;43480;53.116;6.734;2024-01-16T13:43:06;10.02;;;4.93;;
57651;SDS011;43480;53.116;6.734;2024-01-16T13:45:32;13.20;;;4.53;;
57651;SDS011;43480;53.116;6.734;2024-01-16T13:48:01;7.80;;;4.30;;
57651;SDS011;43480;53.116;6.734;2024-01-16T13:50:27;12.77;;;5.90;;
57651;SDS011;43480;53.116;6.734;2024-01-16T13:52:53;12.73;;;5.07;;
57651;SDS011;43480;53.116;6.734;2024-01-16T13:55:20;11.13;;;5.13;;
57651;SDS011;43480;53.116;6.734;2024-01-16T13:57:46;14.07;;;5.65;;
57651;SDS011;43480;53.116;6.734;2024-01-16T14:00:12;12.73;;;4.95;;
57651;SDS011;43480;53.116;6.734;2024-01-16T14:02:40;12.18;;;6.00;;
57651;SDS011;43480;53.116;6.734;2024-01-16T14:05:10;9.35;;;5.05;;
57651;SDS011;43480;53.116;6.734;2024-01-16T14:07:40;11.30;;;4.75;;
57651;SDS011;43480;53.116;6.734;2024-01-16T14:10:12;10.93;;;5.57;;
57651;SDS011;43480;53.116;6.734;2024-01-16T14:12:42;11.00;;;5.63;;
57651;SDS011;43480;53.116;6.734;2024-01-16T14:15:09;10.00;;;5.30;;
57651;SDS011;43480;53.116;6.734;2024-01-16T14:17:51;10.43;;;5.35;;
57651;SDS011;43480;53.116;6.734;2024-01-16T14:20:18;11.00;;;5.22;;
57651;SDS011;43480;53.116;6.734;2024-01-16T14:22:49;11.18;;;6.18;;
57651;SDS011;43480;53.116;6.734;2024-01-16T14:25:16;13.55;;;6.30;;
57651;SDS011;43480;53.116;6.734;2024-01-16T14:27:44;8.98;;;4.75;;
57651;SDS011;43480;53.116;6.734;2024-01-16T14:30:20;12.18;;;5.00;;
57651;SDS011;43480;53.116;6.734;2024-01-16T14:32:45;12.10;;;5.18;;
57651;SDS011;43480;53.116;6.734;2024-01-16T14:35:11;10.20;;;5.72;;
57651;SDS011;43480;53.116;6.734;2024-01-16T14:37:41;10.70;;;5.20;;
57651;SDS011;43480;53.116;6.734;2024-01-16T14:40:07;11.75;;;5.50;;
57651;SDS011;43480;53.116;6.734;2024-01-16T14:42:41;10.48;;;5.00;;
57651;SDS011;43480;53.116;6.734;2024-01-16T14:45:10;13.05;;;4.75;;
57651;SDS011;43480;53.116;6.734;2024-01-16T14:47:37;12.15;;;4.80;;
57651;SDS011;43480;53.116;6.734;2024-01-16T14:50:03;9.32;;;5.07;;
57651;SDS011;43480;53.116;6.734;2024-01-16T14:52:30;9.43;;;5.20;;
57651;SDS011;43480;53.116;6.734;2024-01-16T14:54:58;11.98;;;4.70;;
57651;SDS011;43480;53.116;6.734;2024-01-16T14:57:26;10.93;;;4.28;;
57651;SDS011;43480;53.116;6.734;2024-01-16T14:59:52;10.68;;;4.75;;
57651;SDS011;43480;53.116;6.734;2024-01-16T15:02:18;9.02;;;5.32;;
57651;SDS011;43480;53.116;6.734;2024-01-16T15:04:45;7.97;;;3.63;;
57651;SDS011;43480;53.116;6.734;2024-01-16T15:07:11;6.72;;;3.63;;
57651;SDS011;43480;53.116;6.734;2024-01-16T15:09:37;5.82;;;3.38;;
57651;SDS011;43480;53.116;6.734;2024-01-16T15:12:06;9.68;;;2.70;;
57651;SDS011;43480;53.116;6.734;2024-01-16T15:14:32;7.72;;;3.22;;